Time;durP1;ratioP1;P1;durP2;ratioP2;P2;SDS_P1;SDS_P2;PMS_P1;PMS_P2;Temp;Humidity;BMP_temperature;BMP_pressure;BME280_temperature;BME280_humidity;BME280_pressure;Samples;Min_cycle;Max_cycle;Signal;HPM_P1;HPM_P2
2023/04/25 00:01:40;;;;;;;18.97;4.20;;;8.00;99.90;;;;;;6242771;23;20334;-76
2023/04/25 00:04:09;;;;;;;16.20;2.97;;;7.90;99.90;;;;;;6242269;23;19996;-76
2023/04/25 00:06:36;;;;;;;12.40;3.43;;;7.90;99.90;;;;;;6242409;22;19996;-76
2023/04/25 00:09:03;;;;;;;14.50;3.77;;;7.80;99.90;;;;;;6241860;22;20338;-76
2023/04/25 00:11:30;;;;;;;13.33;3.87;;;7.80;99.90;;;;;;6242312;22;19996;-76
2023/04/25 00:13:57;;;;;;;10.47;3.20;;;7.70;99.90;;;;;;6241848;22;20075;-76
2023/04/25 00:16:23;;;;;;;15.27;4.47;;;7.70;99.90;;;;;;6241403;22;20004;-76
2023/04/25 00:18:51;;;;;;;10.13;3.33;;;7.60;99.90;;;;;;6241077;22;20083;-75
2023/04/25 00:21:20;;;;;;;13.03;3.20;;;7.60;99.90;;;;;;6241179;22;19996;-76
2023/04/25 00:23:47;;;;;;;19.37;4.57;;;7.50;99.90;;;;;;6238876;23;20069;-76
2023/04/25 00:26:12;;;;;;;12.50;4.67;;;7.60;99.90;;;;;;6241550;22;20485;-76
2023/04/25 00:28:39;;;;;;;17.43;4.53;;;7.50;99.90;;;;;;6240792;23;20043;-76
2023/04/25 00:31:04;;;;;;;13.60;4.20;;;7.40;99.90;;;;;;6241820;22;20003;-76
2023/04/25 00:33:30;;;;;;;12.17;4.27;;;7.40;99.90;;;;;;6241996;23;20020;-76
2023/04/25 00:35:56;;;;;;;22.60;4.47;;;7.40;99.90;;;;;;6242117;23;20437;-76
2023/04/25 00:38:21;;;;;;;15.30;4.43;;;7.30;99.90;;;;;;6241525;22;20008;-76
2023/04/25 00:40:47;;;;;;;14.60;5.10;;;7.30;99.90;;;;;;6242230;23;20004;-76
2023/04/25 00:43:13;;;;;;;20.23;4.70;;;7.30;99.90;;;;;;6243897;23;20046;-76
2023/04/25 00:45:39;;;;;;;13.77;4.33;;;7.30;99.90;;;;;;6244457;23;20007;-75
2023/04/25 00:48:05;;;;;;;15.40;3.97;;;7.30;99.90;;;;;;6244028;22;20000;-76
2023/04/25 00:50:33;;;;;;;9.90;4.00;;;7.40;99.90;;;;;;6244291;22;20008;-76
2023/04/25 00:52:59;;;;;;;15.10;4.63;;;7.30;99.90;;;;;;6242027;23;20087;-76
2023/04/25 00:55:25;;;;;;;17.57;4.40;;;7.30;99.90;;;;;;6243808;22;20007;-76
2023/04/25 00:57:51;;;;;;;11.03;4.03;;;7.30;99.90;;;;;;6244637;23;20005;-76
2023/04/25 01:00:17;;;;;;;12.27;3.67;;;7.20;99.90;;;;;;6243804;22;20027;-76
2023/04/25 01:02:44;;;;;;;16.90;4.20;;;7.10;99.90;;;;;;6244325;22;20330;-76
2023/04/25 01:05:10;;;;;;;14.83;4.03;;;7.10;99.90;;;;;;6243831;22;20132;-76
2023/04/25 01:07:36;;;;;;;12.97;3.80;;;7.10;99.90;;;;;;6243823;22;20077;-75
2023/04/25 01:10:02;;;;;;;12.23;4.53;;;7.00;99.90;;;;;;6244011;23;20012;-76
2023/04/25 01:12:28;;;;;;;14.10;4.30;;;6.90;99.90;;;;;;6244027;22;20071;-76
2023/04/25 01:14:54;;;;;;;21.50;4.63;;;6.90;99.90;;;;;;6244267;22;20024;-76
2023/04/25 01:17:19;;;;;;;11.60;4.37;;;6.90;99.90;;;;;;6243798;23;20524;-76
2023/04/25 01:19:48;;;;;;;17.97;5.10;;;6.90;99.90;;;;;;6244110;22;20006;-76
2023/04/25 01:22:14;;;;;;;13.10;4.57;;;6.90;99.90;;;;;;6243007;22;20131;-75
2023/04/25 01:24:40;;;;;;;10.77;4.13;;;6.90;99.90;;;;;;6244045;22;20000;-76
2023/04/25 01:27:06;;;;;;;18.40;5.10;;;6.80;99.90;;;;;;6244068;22;20007;-76
2023/04/25 01:29:32;;;;;;;13.33;4.37;;;6.90;99.90;;;;;;6243656;22;20004;-75
2023/04/25 01:31:59;;;;;;;17.97;5.50;;;6.90;99.90;;;;;;6242622;23;20004;-75
2023/04/25 01:34:25;;;;;;;16.27;5.77;;;6.90;99.90;;;;;;6243357;22;20330;-78
2023/04/25 01:36:50;;;;;;;15.77;5.03;;;7.00;99.90;;;;;;6245071;22;19996;-77
2023/04/25 01:39:17;;;;;;;12.27;3.87;;;7.00;99.90;;;;;;6245938;23;20001;-75
2023/04/25 01:41:43;;;;;;;16.93;5.10;;;7.00;99.90;;;;;;6247833;22;20000;-75
2023/04/25 01:44:08;;;;;;;18.97;5.23;;;7.00;99.90;;;;;;6244628;23;20008;-75
2023/04/25 01:46:34;;;;;;;16.83;5.30;;;7.10;99.90;;;;;;6243663;23;20001;-76
2023/04/25 01:49:00;;;;;;;17.70;5.10;;;7.10;99.90;;;;;;6244358;23;20016;-75
2023/04/25 01:51:26;;;;;;;16.53;6.00;;;7.10;99.90;;;;;;6243219;22;20436;-75
2023/04/25 01:53:52;;;;;;;13.00;3.93;;;7.10;99.90;;;;;;6244956;23;20004;-75
2023/04/25 01:56:18;;;;;;;19.13;4.97;;;7.20;99.90;;;;;;6244752;22;20000;-76
2023/04/25 01:58:44;;;;;;;13.93;5.67;;;7.10;99.90;;;;;;6244046;23;20015;-75
2023/04/25 02:01:10;;;;;;;13.43;4.80;;;7.20;99.90;;;;;;6243899;22;20004;-75
2023/04/25 02:03:36;;;;;;;14.67;4.47;;;7.20;99.90;;;;;;6242056;23;20090;-75
2023/04/25 02:06:02;;;;;;;19.03;4.77;;;7.20;99.90;;;;;;6243261;22;20418;-75
2023/04/25 02:08:27;;;;;;;20.03;5.13;;;7.20;99.90;;;;;;6242998;23;20091;-75
2023/04/25 02:10:53;;;;;;;15.60;5.17;;;7.20;99.90;;;;;;6243889;23;20027;-75
2023/04/25 02:13:18;;;;;;;23.57;5.43;;;7.10;99.90;;;;;;6243420;23;20662;-75
2023/04/25 02:15:44;;;;;;;17.33;5.57;;;7.10;99.90;;;;;;6243676;23;20027;-76
2023/04/25 02:18:10;;;;;;;16.70;6.13;;;7.10;99.90;;;;;;6243734;23;20031;-75
2023/04/25 02:20:36;;;;;;;23.90;5.83;;;7.10;99.90;;;;;;6242856;22;20066;-75
2023/04/25 02:23:03;;;;;;;21.30;5.93;;;7.10;99.90;;;;;;6243827;22;20418;-75
2023/04/25 02:25:28;;;;;;;19.57;5.97;;;7.10;99.90;;;;;;6243173;22;20000;-75
2023/04/25 02:27:54;;;;;;;16.87;4.97;;;7.00;99.90;;;;;;6243681;23;20000;-75
2023/04/25 02:30:20;;;;;;;18.70;6.70;;;7.10;99.90;;;;;;6243449;22;20083;-75
2023/04/25 02:32:46;;;;;;;12.17;5.73;;;7.00;99.90;;;;;;6243116;23;20072;-75
2023/04/25 02:35:12;;;;;;;17.07;5.87;;;7.00;99.90;;;;;;6243170;22;20035;-75
2023/04/25 02:37:39;;;;;;;20.73;5.23;;;7.00;99.90;;;;;;6242814;23;20008;-75
2023/04/25 02:40:05;;;;;;;14.07;4.83;;;6.90;99.90;;;;;;6241938;23;20007;-75
2023/04/25 02:42:30;;;;;;;26.60;6.37;;;6.90;99.90;;;;;;6241164;23;20004;-75
2023/04/25 02:44:56;;;;;;;15.03;4.67;;;6.90;99.90;;;;;;6243428;23;20027;-75
2023/04/25 02:47:22;;;;;;;14.97;4.80;;;6.80;99.90;;;;;;6242650;22;20336;-76
2023/04/25 02:49:47;;;;;;;14.67;5.37;;;6.70;99.90;;;;;;6242772;23;20000;-75
2023/04/25 02:52:13;;;;;;;13.60;4.73;;;6.70;99.90;;;;;;6242768;23;20004;-75
2023/04/25 02:54:40;;;;;;;17.53;4.53;;;6.60;99.90;;;;;;6243026;23;20005;-75
2023/04/25 02:57:06;;;;;;;20.77;5.00;;;6.60;99.90;;;;;;6243065;23;20003;-75
2023/04/25 02:59:31;;;;;;;22.63;6.03;;;6.60;99.90;;;;;;6242785;22;20008;-75
2023/04/25 03:01:57;;;;;;;13.70;5.03;;;6.50;99.90;;;;;;6242558;22;20330;-76
2023/04/25 03:04:23;;;;;;;17.90;4.13;;;6.50;99.90;;;;;;6242839;23;20004;-75
2023/04/25 03:06:50;;;;;;;19.17;5.53;;;6.50;99.90;;;;;;6242864;22;20004;-75
2023/04/25 03:09:15;;;;;;;19.00;5.10;;;6.40;99.90;;;;;;6241204;23;20027;-75
2023/04/25 03:11:41;;;;;;;17.57;4.50;;;6.40;99.90;;;;;;6242877;22;20004;-78
2023/04/25 03:14:07;;;;;;;15.33;5.73;;;6.30;99.90;;;;;;6243067;23;20058;-75
2023/04/25 03:16:32;;;;;;;7.83;4.13;;;6.30;99.90;;;;;;6242262;22;20004;-76
2023/04/25 03:18:58;;;;;;;18.67;5.47;;;6.20;99.90;;;;;;6242767;23;20062;-75
2023/04/25 03:21:23;;;;;;;20.40;4.80;;;6.20;99.90;;;;;;6242491;23;20012;-75
2023/04/25 03:23:49;;;;;;;16.73;5.20;;;6.10;99.90;;;;;;6241138;23;20028;-75
2023/04/25 03:26:15;;;;;;;18.77;5.33;;;6.00;99.90;;;;;;6242293;23;20095;-75
2023/04/25 03:28:41;;;;;;;19.33;5.07;;;6.00;99.90;;;;;;6242831;22;20422;-75
2023/04/25 03:31:06;;;;;;;18.47;6.23;;;5.90;99.90;;;;;;6242224;22;20007;-76
2023/04/25 03:33:32;;;;;;;17.53;4.23;;;6.00;99.90;;;;;;6242443;23;20082;-76
2023/04/25 03:35:57;;;;;;;20.60;5.43;;;5.90;99.90;;;;;;6242518;23;20387;-75
2023/04/25 03:38:23;;;;;;;18.13;5.00;;;5.90;99.90;;;;;;6242375;23;20011;-75
2023/04/25 03:40:50;;;;;;;16.93;4.97;;;5.80;99.90;;;;;;6242519;23;20004;-75
2023/04/25 03:43:16;;;;;;;16.13;4.90;;;5.80;99.90;;;;;;6240914;23;20016;-75
2023/04/25 03:45:41;;;;;;;11.57;5.20;;;5.80;99.90;;;;;;6240483;23;20298;-75
2023/04/25 03:48:07;;;;;;;18.63;6.37;;;5.90;99.90;;;;;;6242373;23;20160;-75
2023/04/25 03:50:32;;;;;;;17.10;5.73;;;5.90;99.90;;;;;;6242415;23;20000;-75
2023/04/25 03:52:58;;;;;;;18.13;5.90;;;5.90;99.90;;;;;;6242532;23;20001;-75
2023/04/25 03:55:23;;;;;;;22.47;5.50;;;5.90;99.90;;;;;;6242193;23;20004;-75
2023/04/25 03:57:49;;;;;;;18.27;7.60;;;5.90;99.90;;;;;;6242703;23;20000;-75
2023/04/25 04:00:15;;;;;;;17.00;6.73;;;6.00;99.90;;;;;;6244364;23;20172;-74
2023/04/25 04:02:40;;;;;;;15.70;6.57;;;5.90;99.90;;;;;;6245094;22;20422;-75
2023/04/25 04:05:06;;;;;;;18.97;6.40;;;5.90;99.90;;;;;;6242227;23;20004;-76
2023/04/25 04:07:32;;;;;;;17.50;6.83;;;5.80;99.90;;;;;;6242528;22;20067;-75
2023/04/25 04:09:58;;;;;;;15.67;6.23;;;5.70;99.90;;;;;;6241764;22;20011;-75
2023/04/25 04:12:24;;;;;;;17.47;6.53;;;5.70;99.90;;;;;;6242730;22;20026;-75
2023/04/25 04:14:49;;;;;;;21.67;6.93;;;5.60;99.90;;;;;;6244481;23;20000;-75
2023/04/25 04:17:15;;;;;;;20.47;7.50;;;5.60;99.90;;;;;;6243585;23;19997;-75
2023/04/25 04:19:41;;;;;;;14.97;7.17;;;5.60;99.90;;;;;;6242597;23;20083;-75
2023/04/25 04:22:07;;;;;;;15.10;7.37;;;5.50;99.90;;;;;;6242292;23;20008;-75
2023/04/25 04:24:32;;;;;;;19.03;8.30;;;5.50;99.90;;;;;;6242222;23;20011;-75
2023/04/25 04:26:58;;;;;;;24.03;7.63;;;5.50;99.90;;;;;;6242044;23;20012;-75
2023/04/25 04:29:24;;;;;;;22.47;8.47;;;5.40;99.90;;;;;;6239859;23;20062;-75
2023/04/25 04:31:52;;;;;;;15.80;7.63;;;5.40;99.90;;;;;;6240767;23;19996;-75
2023/04/25 04:34:18;;;;;;;25.50;9.03;;;5.40;99.90;;;;;;6242220;22;20005;-75
2023/04/25 04:36:47;;;;;;;21.83;8.07;;;5.40;99.90;;;;;;6242353;22;20087;-75
2023/04/25 04:39:13;;;;;;;21.20;8.33;;;5.40;99.90;;;;;;6241345;22;20035;-74
2023/04/25 04:41:39;;;;;;;25.07;10.07;;;5.50;99.90;;;;;;6242361;23;20000;-75
2023/04/25 04:44:06;;;;;;;23.63;7.73;;;5.50;99.90;;;;;;6239699;23;20008;-75
2023/04/25 04:46:37;;;;;;;18.63;7.87;;;5.50;99.90;;;;;;6242097;22;20426;-75
2023/04/25 04:49:04;;;;;;;21.63;7.43;;;5.60;99.90;;;;;;6241966;22;20079;-75
2023/04/25 04:51:31;;;;;;;18.53;7.53;;;5.60;99.90;;;;;;6240424;23;20027;-75
2023/04/25 04:53:58;;;;;;;16.17;7.00;;;5.70;99.90;;;;;;6242057;22;20330;-75
2023/04/25 04:56:25;;;;;;;18.53;7.17;;;5.70;99.90;;;;;;6241904;22;20433;-75
2023/04/25 04:58:51;;;;;;;11.17;5.70;;;5.70;99.90;;;;;;6241805;22;20326;-75
2023/04/25 05:01:16;;;;;;;14.30;6.33;;;5.80;99.90;;;;;;6241820;22;20095;-75
2023/04/25 05:03:42;;;;;;;11.93;4.97;;;5.80;99.90;;;;;;6242281;23;20062;-75
2023/04/25 05:06:08;;;;;;;18.00;5.63;;;5.90;99.90;;;;;;6241854;23;20023;-75
2023/04/25 05:08:34;;;;;;;21.77;6.73;;;5.90;99.90;;;;;;6241895;22;20063;-75
2023/04/25 05:10:59;;;;;;;13.80;5.50;;;6.00;99.90;;;;;;6242015;23;20441;-75
2023/04/25 05:13:25;;;;;;;15.27;5.10;;;6.10;99.90;;;;;;6241182;23;20338;-75
2023/04/25 05:15:50;;;;;;;22.53;5.40;;;6.10;99.90;;;;;;6242405;23;20252;-75
2023/04/25 05:18:16;;;;;;;15.10;4.90;;;6.20;99.90;;;;;;6240024;23;20481;-75
2023/04/25 05:20:42;;;;;;;13.73;4.27;;;6.30;99.90;;;;;;6242106;23;20414;-75
2023/04/25 05:23:07;;;;;;;16.37;3.67;;;6.40;99.90;;;;;;6241715;23;20311;-75
2023/04/25 05:25:33;;;;;;;11.57;4.03;;;6.40;99.90;;;;;;6242584;22;19996;-75
2023/04/25 05:27:59;;;;;;;13.47;3.43;;;6.50;99.90;;;;;;6243152;23;20079;-75
2023/04/25 05:30:24;;;;;;;9.43;3.83;;;6.60;99.90;;;;;;6243734;22;20008;-75
2023/04/25 05:32:50;;;;;;;14.93;4.07;;;6.60;99.90;;;;;;6244125;22;20012;-75
2023/04/25 05:35:16;;;;;;;14.33;4.17;;;6.70;99.90;;;;;;6243555;22;20050;-75
2023/04/25 05:37:42;;;;;;;12.73;4.00;;;6.80;99.90;;;;;;6244000;23;20015;-75
2023/04/25 05:40:08;;;;;;;14.13;3.90;;;6.80;99.90;;;;;;6243651;22;20014;-75
2023/04/25 05:42:34;;;;;;;16.00;3.80;;;6.90;99.90;;;;;;6243227;22;20062;-75
2023/04/25 05:45:00;;;;;;;14.03;3.97;;;7.00;99.90;;;;;;6243550;23;20008;-75
2023/04/25 05:47:26;;;;;;;16.93;4.53;;;7.00;99.90;;;;;;6243659;22;19996;-76
2023/04/25 05:49:51;;;;;;;13.40;4.47;;;7.10;99.90;;;;;;6244033;22;20011;-75
2023/04/25 05:52:17;;;;;;;20.57;6.00;;;7.10;99.90;;;;;;6243158;23;20000;-75
2023/04/25 05:54:42;;;;;;;12.80;3.83;;;7.20;99.90;;;;;;6243893;23;19996;-75
2023/04/25 05:57:08;;;;;;;16.70;3.63;;;7.30;99.90;;;;;;6241310;23;20007;-75
2023/04/25 05:59:34;;;;;;;10.07;3.30;;;7.40;99.90;;;;;;6242915;23;20008;-75
2023/04/25 06:02:00;;;;;;;12.20;3.33;;;7.40;99.90;;;;;;6243943;22;20000;-75
2023/04/25 06:04:26;;;;;;;12.97;3.60;;;7.50;99.90;;;;;;6243161;22;20157;-75
2023/04/25 06:06:51;;;;;;;11.77;3.90;;;7.60;99.90;;;;;;6243512;23;20426;-75
2023/04/25 06:09:17;;;;;;;9.33;2.60;;;7.60;99.90;;;;;;6242870;23;20311;-76
2023/04/25 06:11:42;;;;;;;13.37;3.90;;;7.70;99.90;;;;;;6242945;23;20031;-75
2023/04/25 06:14:08;;;;;;;15.27;2.90;;;7.70;99.90;;;;;;6243230;23;20314;-75
2023/04/25 06:16:33;;;;;;;12.07;3.20;;;7.70;99.90;;;;;;6243389;23;20064;-76
2023/04/25 06:18:59;;;;;;;9.50;2.77;;;7.70;99.90;;;;;;6244331;23;20126;-78
2023/04/25 06:21:25;;;;;;;12.73;2.57;;;7.80;99.90;;;;;;6243852;23;20004;-76
2023/04/25 06:23:51;;;;;;;10.43;2.93;;;7.90;99.90;;;;;;6250018;22;20008;-75
2023/04/25 06:26:16;;;;;;;14.03;2.53;;;7.90;99.90;;;;;;6244100;23;20004;-75
2023/04/25 06:28:42;;;;;;;9.97;2.03;;;7.90;99.90;;;;;;6244012;23;20430;-75
2023/04/25 06:31:07;;;;;;;13.80;2.97;;;8.00;99.90;;;;;;6244549;23;20475;-75
2023/04/25 06:33:33;;;;;;;6.60;2.33;;;8.00;99.90;;;;;;6246335;23;20077;-75
2023/04/25 06:35:58;;;;;;;8.03;2.40;;;8.10;99.90;;;;;;6247224;23;20004;-75
2023/04/25 06:38:24;;;;;;;7.43;2.23;;;8.20;99.90;;;;;;6243432;23;20070;-76
2023/04/25 06:40:49;;;;;;;10.77;3.37;;;8.30;99.90;;;;;;6242582;23;20014;-85
2023/04/25 06:43:15;;;;;;;11.80;3.17;;;8.30;99.90;;;;;;6244757;23;20034;-87
2023/04/25 06:45:42;;;;;;;12.43;2.53;;;8.40;99.90;;;;;;6244532;23;20300;-87
2023/04/25 06:48:07;;;;;;;9.07;2.70;;;8.40;99.90;;;;;;6242625;23;20008;-88
2023/04/25 06:50:33;;;;;;;10.17;3.57;;;8.40;99.90;;;;;;6243805;23;20087;-89
2023/04/25 06:53:01;;;;;;;8.70;2.60;;;8.50;99.90;;;;;;6245052;23;20095;-86
2023/04/25 06:55:27;;;;;;;14.10;4.37;;;8.60;99.90;;;;;;6242405;23;20007;-88
2023/04/25 06:57:52;;;;;;;5.20;2.13;;;8.60;99.90;;;;;;6244672;22;20428;-91
2023/04/25 07:00:18;;;;;;;8.50;2.27;;;8.70;99.90;;;;;;6244363;23;20018;-89
2023/04/25 07:02:44;;;;;;;6.43;2.57;;;8.70;99.90;;;;;;6245055;22;20004;-88
2023/04/25 07:05:10;;;;;;;10.17;2.23;;;8.70;99.90;;;;;;6244688;22;20012;-87
2023/04/25 07:07:35;;;;;;;13.57;3.17;;;8.70;99.90;;;;;;6244833;23;20004;-88
2023/04/25 07:10:01;;;;;;;11.57;2.30;;;8.80;99.90;;;;;;6243835;23;20018;-88
2023/04/25 07:12:26;;;;;;;13.27;2.80;;;8.80;99.90;;;;;;6243991;23;20003;-85
2023/04/25 07:14:52;;;;;;;12.10;1.67;;;8.90;99.90;;;;;;6241301;23;20000;-87
2023/04/25 07:17:17;;;;;;;10.35;2.42;;;8.90;99.90;;;;;;6243436;23;20038;-87
2023/04/25 07:19:43;;;;;;;10.07;2.43;;;9.00;99.90;;;;;;6245427;23;20012;-89
2023/04/25 07:22:09;;;;;;;6.33;1.63;;;9.10;99.90;;;;;;6246652;23;20000;-89
2023/04/25 07:24:34;;;;;;;9.53;1.70;;;9.10;99.90;;;;;;6251196;23;19997;-89
2023/04/25 07:27:01;;;;;;;4.83;1.53;;;9.20;99.90;;;;;;6253651;23;20000;-85
2023/04/25 07:29:26;;;;;;;9.83;1.73;;;9.30;99.90;;;;;;6241126;23;20008;-77
2023/04/25 07:31:52;;;;;;;12.50;2.23;;;9.40;99.90;;;;;;6241483;23;20334;-80
2023/04/25 07:34:18;;;;;;;9.30;1.40;;;9.50;99.90;;;;;;6242361;22;20003;-81
2023/04/25 07:36:43;;;;;;;6.43;2.38;;;9.50;99.90;;;;;;6241213;23;20004;-82
2023/04/25 07:39:09;;;;;;;12.10;2.40;;;9.50;99.90;;;;;;6242657;23;20075;-81
2023/04/25 07:41:35;;;;;;;12.10;1.73;;;9.50;99.90;;;;;;6241988;23;20000;-83
2023/04/25 07:44:00;;;;;;;7.93;2.17;;;9.50;99.90;;;;;;6242828;23;20012;-83
2023/04/25 07:46:26;;;;;;;7.33;1.77;;;9.50;99.90;;;;;;6241979;23;20000;-83
2023/04/25 07:48:51;;;;;;;5.33;0.80;;;9.40;99.90;;;;;;6242356;23;20011;-85
2023/04/25 07:51:19;;;;;;;10.60;1.93;;;9.40;99.90;;;;;;6242029;23;20003;-82
2023/04/25 07:53:45;;;;;;;10.87;2.63;;;9.50;99.90;;;;;;6241984;22;20007;-83
2023/04/25 07:56:11;;;;;;;13.37;1.70;;;9.50;99.90;;;;;;6240797;23;20080;-82
2023/04/25 07:58:36;;;;;;;8.47;1.80;;;9.50;99.90;;;;;;6242459;23;20380;-79
2023/04/25 08:01:02;;;;;;;10.87;1.67;;;9.60;99.90;;;;;;6240811;23;20038;-84
2023/04/25 08:03:27;;;;;;;14.07;2.23;;;9.60;99.90;;;;;;6242110;23;20034;-84
2023/04/25 08:05:53;;;;;;;7.85;1.25;;;9.70;99.90;;;;;;6242657;23;20040;-84
2023/04/25 08:08:19;;;;;;;5.93;1.42;;;9.80;99.90;;;;;;6239889;23;20004;-84
2023/04/25 08:10:44;;;;;;;9.18;2.05;;;10.00;99.90;;;;;;6242307;23;20315;-84
2023/04/25 08:13:10;;;;;;;9.50;1.70;;;9.90;99.90;;;;;;6242587;23;20324;-84
2023/04/25 08:15:35;;;;;;;9.43;1.25;;;9.90;99.90;;;;;;6242050;23;20004;-84
2023/04/25 08:18:01;;;;;;;4.78;1.10;;;10.00;99.90;;;;;;6242646;23;20010;-84
2023/04/25 08:20:26;;;;;;;7.22;1.58;;;10.10;99.90;;;;;;6242169;23;20326;-84
2023/04/25 08:22:52;;;;;;;7.32;1.58;;;10.10;99.90;;;;;;6240498;23;20004;-84
2023/04/25 08:25:17;;;;;;;12.13;1.55;;;10.10;99.90;;;;;;6242371;23;20000;-84
2023/04/25 08:27:43;;;;;;;13.55;1.52;;;10.10;99.90;;;;;;6242297;23;20008;-84
2023/04/25 08:30:09;;;;;;;4.53;1.10;;;10.30;99.90;;;;;;6242106;23;20038;-84
2023/04/25 08:32:37;;;;;;;6.15;1.25;;;10.40;99.40;;;;;;6241918;22;20008;-84
2023/04/25 08:35:03;;;;;;;7.88;1.77;;;10.50;98.40;;;;;;6243170;22;19996;-83
2023/04/25 08:37:29;;;;;;;6.38;1.55;;;10.50;98.10;;;;;;6241988;22;19996;-83
2023/04/25 08:39:56;;;;;;;3.95;1.10;;;10.40;97.20;;;;;;6244743;23;20087;-83
2023/04/25 08:42:23;;;;;;;9.18;1.10;;;10.40;97.20;;;;;;6247014;22;20083;-81
2023/04/25 08:44:49;;;;;;;3.55;0.90;;;10.50;97.40;;;;;;6256327;22;20030;-82
2023/04/25 08:47:15;;;;;;;5.88;1.63;;;10.70;97.30;;;;;;6253788;22;20338;-82
2023/04/25 08:49:46;;;;;;;11.93;2.03;;;10.80;96.90;;;;;;6244177;22;20004;-81
2023/04/25 08:52:13;;;;;;;5.97;1.00;;;10.80;96.90;;;;;;6247257;23;20000;-82
2023/04/25 08:54:44;;;;;;;6.30;1.10;;;10.70;96.60;;;;;;6255393;22;19996;-81
2023/04/25 08:57:09;;;;;;;4.25;0.63;;;10.70;96.60;;;;;;6255873;23;19997;-81
2023/04/25 08:59:37;;;;;;;5.43;1.65;;;10.70;96.50;;;;;;6246378;22;20011;-81
2023/04/25 09:02:03;;;;;;;5.78;1.17;;;10.60;96.10;;;;;;6245449;22;20007;-82
2023/04/25 09:04:31;;;;;;;5.50;0.90;;;10.70;95.90;;;;;;6243974;23;20000;-82
2023/04/25 09:06:56;;;;;;;7.70;1.58;;;10.70;95.40;;;;;;6244591;22;20000;-82
2023/04/25 09:09:23;;;;;;;5.60;1.42;;;10.60;95.70;;;;;;6244382;23;20023;-82
2023/04/25 09:11:49;;;;;;;8.32;1.70;;;10.50;95.60;;;;;;6244275;22;19996;-81
2023/04/25 09:14:23;;;;;;;7.72;1.38;;;10.40;95.60;;;;;;6244350;22;20005;-82
2023/04/25 09:16:57;;;;;;;5.38;0.75;;;10.40;95.90;;;;;;6243930;22;20469;-82
2023/04/25 09:19:25;;;;;;;6.80;0.90;;;10.30;95.90;;;;;;6243874;22;20015;-81
2023/04/25 09:21:51;;;;;;;3.17;1.20;;;10.20;96.00;;;;;;6242173;23;20008;-81
2023/04/25 09:24:29;;;;;;;4.78;1.40;;;10.20;96.50;;;;;;6244313;22;20007;-81
2023/04/25 09:26:55;;;;;;;3.35;0.80;;;10.20;96.20;;;;;;6242870;23;20329;-82
2023/04/25 09:29:29;;;;;;;3.20;0.63;;;10.20;95.50;;;;;;6243889;22;20091;-82
2023/04/25 09:32:11;;;;;;;5.05;0.80;;;10.20;94.60;;;;;;6244182;22;20303;-83
2023/04/25 09:34:44;;;;;;;4.03;0.80;;;10.20;94.30;;;;;;6242210;23;20008;-82
2023/04/25 09:37:11;;;;;;;6.95;0.68;;;10.20;94.10;;;;;;6243823;22;20057;-81
2023/04/25 09:39:38;;;;;;;4.93;0.90;;;10.20;94.00;;;;;;6243944;22;20008;-83
2023/04/25 09:42:05;;;;;;;3.60;0.82;;;10.10;93.80;;;;;;6242547;23;20070;-81
2023/04/25 09:44:30;;;;;;;5.65;0.80;;;10.00;93.90;;;;;;6243482;22;20489;-80
2023/04/25 09:46:56;;;;;;;6.53;1.98;;;9.90;94.10;;;;;;6244214;23;20035;-81
2023/04/25 09:49:22;;;;;;;3.97;0.90;;;9.80;94.30;;;;;;6243085;22;20034;-81
2023/04/25 09:51:58;;;;;;;3.67;0.73;;;9.70;94.30;;;;;;6243735;22;20027;-81
2023/04/25 09:54:26;;;;;;;4.70;0.70;;;9.60;94.40;;;;;;6243789;22;20004;-81
2023/04/25 09:56:53;;;;;;;5.60;1.40;;;9.70;94.40;;;;;;6243340;23;20419;-81
2023/04/25 09:59:25;;;;;;;3.90;1.55;;;9.80;94.50;;;;;;6243085;22;20000;-82
2023/04/25 10:01:52;;;;;;;6.83;1.30;;;10.00;93.70;;;;;;6243719;22;20445;-82
2023/04/25 10:04:21;;;;;;;4.88;1.38;;;10.10;94.10;;;;;;6242566;22;20011;-82
2023/04/25 10:06:50;;;;;;;6.38;0.90;;;10.30;93.80;;;;;;6243584;22;20426;-82
2023/04/25 10:09:17;;;;;;;6.78;2.17;;;10.50;92.70;;;;;;6243401;22;20008;-84
2023/04/25 10:11:46;;;;;;;6.75;0.80;;;10.70;92.60;;;;;;6242776;22;20046;-82
2023/04/25 10:14:13;;;;;;;4.15;0.93;;;11.00;93.20;;;;;;6243418;22;20007;-83
2023/04/25 10:16:41;;;;;;;3.88;0.90;;;11.20;93.00;;;;;;6243485;22;20079;-83
2023/04/25 10:19:07;;;;;;;3.00;1.15;;;11.40;92.20;;;;;;6241603;23;19996;-83
2023/04/25 10:21:34;;;;;;;4.90;0.68;;;11.50;91.70;;;;;;6243391;22;20007;-83
2023/04/25 10:24:00;;;;;;;5.07;1.00;;;11.50;91.60;;;;;;6243935;22;20011;-83
2023/04/25 10:26:26;;;;;;;2.95;0.50;;;11.60;91.40;;;;;;6243445;22;20354;-82
2023/04/25 10:29:02;;;;;;;7.40;1.08;;;11.50;91.20;;;;;;6243384;22;20083;-83
2023/04/25 10:31:30;;;;;;;4.82;0.90;;;11.60;90.60;;;;;;6242747;22;20377;-84
2023/04/25 10:33:56;;;;;;;2.42;0.60;;;11.60;90.70;;;;;;6241224;23;20029;-82
2023/04/25 10:36:22;;;;;;;3.45;0.63;;;11.60;89.40;;;;;;6243233;22;20434;-81
2023/04/25 10:38:52;;;;;;;2.85;0.82;;;11.60;89.60;;;;;;6241453;23;20010;-81
2023/04/25 10:41:20;;;;;;;3.95;1.48;;;11.70;87.30;;;;;;6243089;22;20127;-81
2023/04/25 10:43:50;;;;;;;4.45;0.80;;;11.60;86.90;;;;;;6243134;22;20075;-81
2023/04/25 10:46:22;;;;;;;7.70;0.65;;;11.60;87.10;;;;;;6242564;22;20027;-81
2023/04/25 10:48:52;;;;;;;5.03;0.60;;;11.50;86.90;;;;;;6243159;22;20004;-81
2023/04/25 10:51:22;;;;;;;3.42;1.00;;;11.40;86.70;;;;;;6243191;22;20000;-80
2023/04/25 10:54:07;;;;;;;2.80;0.70;;;11.50;87.40;;;;;;6243036;23;20062;-81
2023/04/25 10:56:35;;;;;;;2.85;0.85;;;11.50;87.90;;;;;;6241898;23;19996;-81
2023/04/25 10:59:10;;;;;;;4.60;0.70;;;11.50;86.70;;;;;;6244253;23;20008;-81
2023/04/25 11:01:43;;;;;;;3.22;0.50;;;11.40;85.60;;;;;;6247739;22;20000;-81
2023/04/25 11:04:31;;;;;;;6.93;0.90;;;11.40;86.30;;;;;;6260223;22;20000;-81
2023/04/25 11:07:06;;;;;;;5.32;1.00;;;11.30;87.10;;;;;;6255591;22;20330;-81
2023/04/25 11:09:37;;;;;;;5.82;0.50;;;11.30;87.80;;;;;;6244058;22;20000;-81
2023/04/25 11:12:03;;;;;;;4.18;0.60;;;11.40;87.80;;;;;;6245445;22;20007;-81
2023/04/25 11:14:29;;;;;;;2.10;0.63;;;11.40;87.60;;;;;;6251620;22;20000;-80
2023/04/25 11:16:56;;;;;;;3.47;0.60;;;11.40;87.00;;;;;;6263550;22;20000;-80
2023/04/25 11:19:22;;;;;;;3.13;0.63;;;11.40;87.20;;;;;;6252955;22;20008;-80
2023/04/25 11:21:47;;;;;;;2.83;0.65;;;11.40;86.90;;;;;;6244182;22;20365;-80
2023/04/25 11:24:13;;;;;;;1.52;0.40;;;11.40;84.20;;;;;;6243111;23;20053;-81
2023/04/25 11:26:41;;;;;;;3.45;0.90;;;11.30;82.80;;;;;;6243701;23;20460;-81
2023/04/25 11:29:07;;;;;;;4.40;0.98;;;11.30;82.10;;;;;;6243179;22;20000;-81
2023/04/25 11:31:32;;;;;;;2.22;0.63;;;11.30;81.90;;;;;;6242547;23;20075;-81
2023/04/25 11:33:59;;;;;;;4.03;0.93;;;11.20;80.80;;;;;;6243094;23;20016;-80
2023/04/25 11:36:25;;;;;;;3.35;0.57;;;11.40;80.70;;;;;;6242970;22;20031;-81
2023/04/25 11:38:52;;;;;;;4.95;0.90;;;11.50;80.70;;;;;;6241080;23;20334;-79
2023/04/25 11:41:19;;;;;;;5.75;1.23;;;11.70;81.30;;;;;;6242707;22;20000;-80
2023/04/25 11:43:44;;;;;;;1.08;0.50;;;11.90;80.70;;;;;;6243065;22;20011;-80
2023/04/25 11:46:11;;;;;;;5.93;0.73;;;11.90;79.50;;;;;;6241818;22;20000;-81
2023/04/25 11:48:38;;;;;;;3.58;0.90;;;12.00;79.10;;;;;;6242679;22;20015;-81
2023/04/25 11:51:04;;;;;;;4.28;0.80;;;12.00;79.70;;;;;;6242596;22;20004;-81
2023/04/25 11:53:30;;;;;;;3.65;0.65;;;12.10;79.90;;;;;;6242504;22;20377;-80
2023/04/25 11:55:56;;;;;;;4.05;0.90;;;12.20;79.40;;;;;;6241129;23;19996;-81
2023/04/25 11:58:21;;;;;;;2.50;0.60;;;12.20;79.10;;;;;;6240332;23;20000;-81
2023/04/25 12:00:47;;;;;;;4.13;0.85;;;12.30;79.30;;;;;;6242313;23;19999;-81
2023/04/25 12:03:12;;;;;;;5.05;1.23;;;12.50;79.40;;;;;;6240159;23;20000;-81
2023/04/25 12:05:39;;;;;;;3.90;0.63;;;12.60;78.50;;;;;;6241380;22;20070;-80
2023/04/25 12:08:13;;;;;;;5.22;1.02;;;12.80;77.80;;;;;;6240610;23;20004;-80
2023/04/25 12:10:40;;;;;;;2.35;0.98;;;12.70;76.50;;;;;;6242955;22;20004;-81
2023/04/25 12:13:20;;;;;;;5.53;1.02;;;12.50;78.80;;;;;;6241820;22;20418;-81
2023/04/25 12:15:45;;;;;;;5.82;0.80;;;12.20;82.00;;;;;;6242217;22;20004;-81
2023/04/25 12:18:11;;;;;;;4.35;1.60;;;11.90;84.00;;;;;;6240842;23;20026;-81
2023/04/25 12:20:37;;;;;;;4.90;0.82;;;11.70;86.50;;;;;;6242494;23;20027;-81
2023/04/25 12:23:07;;;;;;;3.67;0.85;;;11.50;87.50;;;;;;6241889;23;20010;-80
2023/04/25 12:25:38;;;;;;;6.10;0.93;;;11.30;87.90;;;;;;6241761;22;20030;-81
2023/04/25 12:28:19;;;;;;;3.65;1.25;;;11.10;88.00;;;;;;6241135;22;20016;-80
2023/04/25 12:31:04;;;;;;;4.40;0.80;;;10.90;87.10;;;;;;6240584;23;20034;-80
2023/04/25 12:33:37;;;;;;;3.85;1.08;;;10.80;87.40;;;;;;6241839;22;20457;-80
2023/04/25 12:36:09;;;;;;;4.30;0.90;;;10.70;87.00;;;;;;6239503;23;20492;-81
2023/04/25 12:38:39;;;;;;;3.10;0.70;;;10.60;87.10;;;;;;6241743;22;20008;-81
2023/04/25 12:41:05;;;;;;;4.93;0.85;;;10.70;87.30;;;;;;6241930;22;20004;-81
2023/04/25 12:43:31;;;;;;;5.57;0.90;;;10.80;86.70;;;;;;6239333;23;20004;-81
2023/04/25 12:45:57;;;;;;;6.75;1.98;;;10.80;86.00;;;;;;6242337;23;20012;-81